createdAt,value
2018-09-02T00:00:30.851Z,0
2018-09-02T00:01:32.744Z,0
2018-09-02T00:02:34.592Z,0
2018-09-02T00:03:36.362Z,0
2018-09-02T00:04:38.590Z,0
2018-09-02T00:05:40.289Z,0
2018-09-02T00:06:42.507Z,0
2018-09-02T00:07:44.587Z,0
2018-09-02T00:08:46.491Z,0
2018-09-02T00:09:48.696Z,0
2018-09-02T00:10:50.952Z,0
2018-09-02T00:11:53.138Z,0
2018-09-02T00:12:55.264Z,0
2018-09-02T00:13:57.047Z,0
2018-09-02T00:14:59.251Z,0
2018-09-02T00:16:01.094Z,0
2018-09-02T00:17:02.976Z,0
2018-09-02T00:18:04.909Z,0
2018-09-02T00:19:06.800Z,0
2018-09-02T00:20:08.637Z,0
2018-09-02T00:21:10.355Z,0
2018-09-02T00:22:12.255Z,0
2018-09-02T00:23:14.147Z,0
2018-09-02T00:24:16.046Z,0
2018-09-02T00:25:18.257Z,0
2018-09-02T00:26:20.295Z,0
2018-09-02T00:27:22.047Z,0
2018-09-02T00:28:24.211Z,0
2018-09-02T00:29:26.445Z,0
2018-09-02T00:30:28.202Z,0
2018-09-02T00:31:30.450Z,0
2018-09-02T00:32:32.304Z,0
2018-09-02T00:33:34.455Z,0
2018-09-02T00:34:36.257Z,0
2018-09-02T00:35:38.122Z,0
2018-09-02T00:36:40.313Z,0
2018-09-02T00:37:42.068Z,0
2018-09-02T00:38:44.388Z,0
2018-09-02T00:39:46.144Z,0
2018-09-02T00:40:47.932Z,0
2018-09-02T00:41:50.082Z,0
2018-09-02T00:42:51.946Z,0
2018-09-02T00:43:53.822Z,0
2018-09-02T00:44:56.174Z,0
2018-09-02T00:45:57.955Z,0
2018-09-02T00:46:59.745Z,0
2018-09-02T00:48:01.529Z,0
2018-09-02T00:49:03.431Z,0
2018-09-02T00:50:05.328Z,0
2018-09-02T00:51:07.574Z,0
2018-09-02T00:52:09.655Z,0
2018-09-02T00:53:11.773Z,0
2018-09-02T00:54:13.657Z,0
2018-09-02T00:55:15.883Z,0
2018-09-02T00:56:17.648Z,0
2018-09-02T00:57:19.758Z,0
2018-09-02T00:58:21.932Z,0
2018-09-02T00:59:23.967Z,0
2018-09-02T01:00:25.825Z,0
2018-09-02T01:01:27.681Z,0
2018-09-02T01:02:29.572Z,0
2018-09-02T01:03:31.827Z,0
2018-09-02T01:04:33.888Z,0
2018-09-02T01:05:36.012Z,0
2018-09-02T01:06:37.778Z,0
2018-09-02T01:07:39.709Z,0
2018-09-02T01:08:41.505Z,0
2018-09-02T01:09:43.852Z,0
2018-09-02T01:10:45.997Z,0
2018-09-02T01:11:48.249Z,0
2018-09-02T01:12:50.373Z,0
2018-09-02T01:13:52.534Z,0
2018-09-02T01:14:54.381Z,0
2018-09-02T01:15:56.291Z,0
2018-09-02T01:16:58.591Z,0
2018-09-02T01:18:00.603Z,0
2018-09-02T01:19:02.685Z,0
2018-09-02T01:20:04.881Z,0
2018-09-02T01:21:06.923Z,0
2018-09-02T01:22:08.709Z,0
2018-09-02T01:23:10.843Z,0
2018-09-02T01:24:12.841Z,0
2018-09-02T01:25:15.642Z,0
2018-09-02T01:26:17.887Z,0
2018-09-02T01:27:20.022Z,0
2018-09-02T01:28:21.895Z,0
2018-09-02T01:29:24.080Z,0
2018-09-02T01:30:25.900Z,0
2018-09-02T01:31:27.795Z,0
2018-09-02T01:32:29.598Z,0
2018-09-02T01:33:31.443Z,0
2018-09-02T01:34:33.371Z,0
2018-09-02T01:35:35.657Z,0
2018-09-02T01:36:37.492Z,0
2018-09-02T01:37:39.713Z,0
2018-09-02T01:38:41.882Z,0
2018-09-02T01:39:44.840Z,0
2018-09-02T01:40:46.632Z,0
2018-09-02T01:41:48.535Z,0
2018-09-02T01:42:50.321Z,0
2018-09-02T01:43:52.145Z,0
2018-09-02T01:44:53.932Z,0
2018-09-02T01:45:55.780Z,0
2018-09-02T01:46:57.747Z,0
2018-09-02T01:47:59.655Z,0
2018-09-02T01:49:01.513Z,0
2018-09-02T01:50:03.738Z,0
2018-09-02T01:51:05.571Z,0
2018-09-02T01:52:07.749Z,0
2018-09-02T01:53:09.710Z,0
2018-09-02T01:54:11.751Z,0
2018-09-02T01:55:13.880Z,0
2018-09-02T01:56:16.237Z,0
2018-09-02T01:57:18.162Z,0
2018-09-02T01:58:20.019Z,0
2018-09-02T01:59:22.255Z,0
2018-09-02T02:00:24.132Z,0
2018-09-02T02:01:26.192Z,0
2018-09-02T02:02:28.058Z,0
2018-09-02T02:03:30.398Z,0
2018-09-02T02:04:32.324Z,0
2018-09-02T02:05:34.392Z,0
2018-09-02T02:06:36.667Z,0
2018-09-02T02:07:38.705Z,0
2018-09-02T02:08:40.798Z,0
2018-09-02T02:09:42.715Z,0
2018-09-02T02:10:44.617Z,0
2018-09-02T02:11:46.522Z,0
2018-09-02T02:12:48.760Z,0
2018-09-02T02:13:50.751Z,0
2018-09-02T02:14:52.874Z,0
2018-09-02T02:15:54.718Z,0
2018-09-02T02:16:56.642Z,0
2018-09-02T02:17:58.614Z,0
2018-09-02T02:19:00.589Z,0
2018-09-02T02:20:02.512Z,0
2018-09-02T02:21:04.762Z,0
2018-09-02T02:22:06.513Z,0
2018-09-02T02:23:08.395Z,0
2018-09-02T02:24:10.372Z,0
2018-09-02T02:25:12.357Z,0
2018-09-02T02:26:14.294Z,0
2018-09-02T02:27:16.212Z,0
2018-09-02T02:28:18.066Z,0
2018-09-02T02:29:20.032Z,0
2018-09-02T02:30:21.934Z,0
2018-09-02T02:31:23.872Z,0
2018-09-02T02:32:25.855Z,0
2018-09-02T02:33:27.892Z,0
2018-09-02T02:34:29.889Z,0
2018-09-02T02:35:31.813Z,0
2018-09-02T02:36:33.745Z,0
2018-09-02T02:37:35.592Z,0
2018-09-02T02:38:37.582Z,0
2018-09-02T02:39:39.708Z,0
2018-09-02T02:40:41.687Z,0
2018-09-02T02:41:43.697Z,0
2018-09-02T02:42:45.734Z,0
2018-09-02T02:43:47.854Z,0
2018-09-02T02:44:49.803Z,0
2018-09-02T02:45:51.781Z,0
2018-09-02T02:46:53.912Z,0
2018-09-02T02:47:55.916Z,0
2018-09-02T02:48:57.939Z,0
2018-09-02T02:49:59.839Z,0
2018-09-02T02:51:02.018Z,0
2018-09-02T02:52:04.008Z,0
2018-09-02T02:53:05.967Z,0
2018-09-02T02:54:07.856Z,0
2018-09-02T02:55:09.869Z,0
2018-09-02T02:56:11.892Z,0
2018-09-02T02:57:13.786Z,0
2018-09-02T02:58:15.676Z,0
2018-09-02T02:59:17.619Z,0
2018-09-02T03:00:19.403Z,0
2018-09-02T03:01:21.570Z,0
2018-09-02T03:02:23.443Z,0
2018-09-02T03:03:25.511Z,0
2018-09-02T03:04:27.370Z,0
2018-09-02T03:05:29.332Z,0
2018-09-02T03:06:31.224Z,0
2018-09-02T03:07:33.222Z,0
2018-09-02T03:08:35.327Z,0
2018-09-02T03:09:37.236Z,0
2018-09-02T03:10:39.280Z,0
2018-09-02T03:11:41.258Z,0
2018-09-02T03:12:43.248Z,0
2018-09-02T03:13:45.556Z,0
2018-09-02T03:14:47.527Z,0
2018-09-02T03:15:49.563Z,0
2018-09-02T03:16:51.542Z,0
2018-09-02T03:17:53.506Z,0
2018-09-02T03:18:55.392Z,0
2018-09-02T03:19:57.538Z,0
2018-09-02T03:20:59.561Z,0
2018-09-02T03:22:01.520Z,0
2018-09-02T03:23:03.659Z,0
2018-09-02T03:24:05.612Z,0
2018-09-02T03:25:07.872Z,0
2018-09-02T03:26:09.831Z,0
2018-09-02T03:27:12.029Z,0
2018-09-02T03:28:13.972Z,0
2018-09-02T03:29:16.126Z,0
2018-09-02T03:30:18.307Z,0
2018-09-02T03:31:20.367Z,0
2018-09-02T03:32:22.293Z,0
2018-09-02T03:33:24.316Z,0
2018-09-02T03:34:26.484Z,0
2018-09-02T03:35:28.327Z,0
2018-09-02T03:36:30.468Z,0
2018-09-02T03:37:32.487Z,0
2018-09-02T03:38:34.456Z,0
2018-09-02T03:39:36.414Z,0
2018-09-02T03:40:38.418Z,0
2018-09-02T03:41:41.391Z,0
2018-09-02T03:42:43.675Z,0
2018-09-02T03:43:45.774Z,0
2018-09-02T03:44:47.873Z,0
2018-09-02T03:45:49.818Z,0
2018-09-02T03:46:51.879Z,0
2018-09-02T03:47:53.804Z,0
2018-09-02T03:48:55.766Z,0
2018-09-02T03:49:57.787Z,0
2018-09-02T03:50:59.976Z,0
2018-09-02T03:52:02.275Z,0
2018-09-02T03:53:04.252Z,0
2018-09-02T03:54:06.253Z,0
2018-09-02T03:55:08.184Z,0
2018-09-02T03:56:10.162Z,0
2018-09-02T03:57:12.038Z,0
2018-09-02T03:58:14.061Z,0
2018-09-02T03:59:16.200Z,0
2018-09-02T04:00:18.124Z,0
2018-09-02T04:01:20.132Z,0
2018-09-02T04:02:21.959Z,0
2018-09-02T04:03:24.129Z,0
2018-09-02T04:04:26.158Z,0
2018-09-02T04:05:28.121Z,0
2018-09-02T04:06:30.068Z,0
2018-09-02T04:07:32.260Z,0
2018-09-02T04:08:34.487Z,0
2018-09-02T04:09:36.366Z,0
2018-09-02T04:10:38.329Z,0
2018-09-02T04:11:40.347Z,4
2018-09-02T04:12:42.280Z,4
2018-09-02T04:13:44.379Z,0
2018-09-02T04:14:46.506Z,4
2018-09-02T04:15:48.438Z,4
2018-09-02T04:16:50.376Z,4
2018-09-02T04:17:52.452Z,8
2018-09-02T04:18:54.289Z,8
2018-09-02T04:19:56.359Z,8
2018-09-02T04:20:58.424Z,12
2018-09-02T04:22:00.673Z,12
2018-09-02T04:23:02.538Z,16
2018-09-02T04:24:04.591Z,20
2018-09-02T04:25:06.766Z,24
2018-09-02T04:26:08.716Z,24
2018-09-02T04:27:10.853Z,32
2018-09-02T04:28:12.903Z,36
2018-09-02T04:29:14.784Z,44
2018-09-02T04:30:16.846Z,52
2018-09-02T04:31:18.897Z,60
2018-09-02T04:32:20.753Z,68
2018-09-02T04:33:22.499Z,76
2018-09-02T04:34:24.605Z,88
2018-09-02T04:35:26.672Z,100
2018-09-02T04:36:28.612Z,116
2018-09-02T04:37:30.565Z,128
2018-09-02T04:38:32.661Z,144
2018-09-02T04:39:34.482Z,160
2018-09-02T04:40:36.303Z,180
2018-09-02T04:41:38.195Z,196
2018-09-02T04:42:40.321Z,216
2018-09-02T04:43:42.261Z,232
2018-09-02T04:44:44.356Z,256
2018-09-02T04:45:46.399Z,280
2018-09-02T04:46:48.205Z,304
2018-09-02T04:47:50.314Z,328
2018-09-02T04:48:52.384Z,356
2018-09-02T04:49:54.345Z,384
2018-09-02T04:50:56.510Z,416
2018-09-02T04:51:58.277Z,452
2018-09-02T04:53:00.160Z,480
2018-09-02T04:54:02.275Z,516
2018-09-02T04:55:04.411Z,556
2018-09-02T04:56:06.778Z,588
2018-09-02T04:57:08.754Z,628
2018-09-02T04:58:10.973Z,664
2018-09-02T04:59:13.037Z,708
2018-09-02T05:00:15.122Z,748
2018-09-02T05:01:17.106Z,788
2018-09-02T05:02:19.197Z,832
2018-09-02T05:03:21.238Z,880
2018-09-02T05:04:23.016Z,920
2018-09-02T05:05:25.157Z,968
2018-09-02T05:06:26.976Z,1016
2018-09-02T05:07:29.167Z,1068
2018-09-02T05:08:31.305Z,1116
2018-09-02T05:09:33.569Z,1168
2018-09-02T05:10:35.762Z,1224
2018-09-02T05:11:37.888Z,1280
2018-09-02T05:12:39.909Z,1336
2018-09-02T05:13:41.778Z,1396
2018-09-02T05:14:43.990Z,1456
2018-09-02T05:15:46.014Z,1520
2018-09-02T05:16:48.164Z,1588
2018-09-02T05:17:50.368Z,1652
2018-09-02T05:18:52.584Z,1728
2018-09-02T05:19:54.636Z,1796
2018-09-02T05:20:56.478Z,1868
2018-09-02T05:21:58.666Z,1932
2018-09-02T05:23:00.670Z,2004
2018-09-02T05:24:02.752Z,2084
2018-09-02T05:25:04.554Z,2160
2018-09-02T05:26:06.665Z,2232
2018-09-02T05:27:08.774Z,2296
2018-09-02T05:28:10.654Z,2360
2018-09-02T05:29:12.429Z,2432
2018-09-02T05:30:14.255Z,2504
2018-09-02T05:31:16.113Z,2584
2018-09-02T05:32:18.191Z,2668
2018-09-02T05:33:20.223Z,2744
2018-09-02T05:34:22.020Z,2812
2018-09-02T05:35:24.318Z,2880
2018-09-02T05:36:26.064Z,2948
2018-09-02T05:37:28.420Z,3016
2018-09-02T05:38:30.190Z,3096
2018-09-02T05:39:32.113Z,3168
2018-09-02T05:40:34.293Z,3236
2018-09-02T05:41:36.220Z,3300
2018-09-02T05:42:38.017Z,3380
2018-09-02T05:43:40.073Z,3468
2018-09-02T05:44:41.868Z,3552
2018-09-02T05:45:43.990Z,3640
2018-09-02T05:46:46.422Z,3732
2018-09-02T05:47:48.490Z,3812
2018-09-02T05:48:50.326Z,3896
2018-09-02T05:49:52.437Z,3984
2018-09-02T05:50:54.290Z,4084
2018-09-02T05:51:56.154Z,4188
2018-09-02T05:52:57.948Z,4296
2018-09-02T05:54:00.295Z,4396
2018-09-02T05:55:02.093Z,4488
2018-09-02T05:56:04.213Z,4576
2018-09-02T05:57:06.224Z,4672
2018-09-02T05:58:07.986Z,4776
2018-09-02T05:59:10.007Z,4852
2018-09-02T06:00:12.212Z,4964
2018-09-02T06:01:14.461Z,5060
2018-09-02T06:02:16.717Z,5152
2018-09-02T06:03:18.806Z,5232
2018-09-02T06:04:21.029Z,5344
2018-09-02T06:05:23.118Z,5444
2018-09-02T06:06:25.379Z,5540
2018-09-02T06:07:27.412Z,5644
2018-09-02T06:08:29.444Z,5744
2018-09-02T06:09:31.755Z,5844
2018-09-02T06:10:33.776Z,5908
2018-09-02T06:11:36.188Z,5992
2018-09-02T06:12:38.561Z,6096
2018-09-02T06:13:40.683Z,6212
2018-09-02T06:14:42.513Z,6312
2018-09-02T06:15:44.822Z,6424
2018-09-02T06:16:46.968Z,6512
2018-09-02T06:17:49.073Z,6600
2018-09-02T06:18:50.933Z,6700
2018-09-02T06:19:52.899Z,6828
2018-09-02T06:20:55.226Z,6956
2018-09-02T06:21:57.425Z,7040
2018-09-02T06:22:59.313Z,7084
2018-09-02T06:24:01.184Z,7176
2018-09-02T06:25:03.198Z,7288
2018-09-02T06:26:05.153Z,7412
2018-09-02T06:27:07.166Z,7520
2018-09-02T06:28:09.072Z,7592
2018-09-02T06:29:10.966Z,7660
2018-09-02T06:30:12.883Z,7764
2018-09-02T06:31:15.136Z,7884
2018-09-02T06:32:16.931Z,7980
2018-09-02T06:33:19.158Z,8056
2018-09-02T06:34:21.160Z,8132
2018-09-02T06:35:23.079Z,8224
2018-09-02T06:36:24.807Z,8348
2018-09-02T06:37:26.974Z,8436
2018-09-02T06:38:29.277Z,8536
2018-09-02T06:39:31.584Z,8664
2018-09-02T06:40:33.464Z,8800
2018-09-02T06:41:35.377Z,8912
2018-09-02T06:42:37.432Z,8980
2018-09-02T06:43:39.573Z,9092
2018-09-02T06:44:41.756Z,9216
2018-09-02T06:45:43.968Z,9344
2018-09-02T06:46:45.875Z,9432
2018-09-02T06:47:47.996Z,9504
2018-09-02T06:48:50.028Z,9604
2018-09-02T06:49:52.672Z,9764
2018-09-02T06:50:54.853Z,9864
2018-09-02T06:51:56.626Z,9972
2018-09-02T06:52:58.573Z,10092
2018-09-02T06:54:00.757Z,10256
2018-09-02T06:55:02.798Z,10436
2018-09-02T06:56:05.055Z,10608
2018-09-02T06:57:06.894Z,10796
2018-09-02T06:58:08.775Z,10940
2018-09-02T06:59:10.718Z,11120
2018-09-02T07:00:13.087Z,11300
2018-09-02T07:01:14.864Z,11500
2018-09-02T07:02:16.703Z,11660
2018-09-02T07:03:19.056Z,11788
2018-09-02T07:04:21.088Z,11920
2018-09-02T07:05:23.188Z,12036
2018-09-02T07:06:25.136Z,12196
2018-09-02T07:07:27.376Z,12308
2018-09-02T07:08:29.344Z,12428
2018-09-02T07:09:31.719Z,12580
2018-09-02T07:10:33.633Z,12744
2018-09-02T07:11:35.731Z,12844
2018-09-02T07:12:37.689Z,12928
2018-09-02T07:13:39.538Z,13048
2018-09-02T07:14:41.412Z,13096
2018-09-02T07:15:43.418Z,13120
2018-09-02T07:16:45.317Z,13608
2018-09-02T07:17:47.213Z,13340
2018-09-02T07:18:49.228Z,13548
2018-09-02T07:19:51.087Z,13724
2018-09-02T07:20:52.964Z,13804
2018-09-02T07:21:54.911Z,13780
2018-09-02T07:22:57.112Z,13904
2018-09-02T07:23:59.064Z,13992
2018-09-02T07:25:00.940Z,14128
2018-09-02T07:26:02.785Z,14300
2018-09-02T07:27:04.681Z,14420
2018-09-02T07:28:06.553Z,14476
2018-09-02T07:29:08.459Z,14572
2018-09-02T07:30:10.658Z,14576
2018-09-02T07:31:12.529Z,14784
2018-09-02T07:32:14.455Z,14848
2018-09-02T07:33:16.534Z,14912
2018-09-02T07:34:18.420Z,14944
2018-09-02T07:35:20.457Z,15232
2018-09-02T07:36:22.348Z,15424
2018-09-02T07:37:24.308Z,15552
2018-09-02T07:38:26.203Z,15872
2018-09-02T07:39:28.107Z,16288
2018-09-02T07:40:30.036Z,16736
2018-09-02T07:41:32.231Z,17216
2018-09-02T07:42:34.246Z,17568
2018-09-02T07:43:36.074Z,18400
2018-09-02T07:44:38.305Z,19680
2018-09-02T07:45:40.908Z,21600
2018-09-02T07:46:42.710Z,23360
2018-09-02T07:47:44.599Z,25792
2018-09-02T07:48:46.603Z,27904
2018-09-02T07:49:48.692Z,29216
2018-09-02T07:50:50.602Z,30752
2018-09-02T07:51:52.403Z,32864
2018-09-02T07:52:54.506Z,34144
2018-09-02T07:53:56.380Z,36032
2018-09-02T07:54:58.441Z,39584
2018-09-02T07:56:00.307Z,40256
2018-09-02T07:57:02.258Z,37280
2018-09-02T07:58:04.999Z,33088
2018-09-02T07:59:07.028Z,29856
2018-09-02T08:00:08.998Z,28096
2018-09-02T08:01:10.825Z,27200
2018-09-02T08:02:13.162Z,26368
2018-09-02T08:03:15.008Z,25248
2018-09-02T08:04:16.797Z,22688
2018-09-02T08:05:18.546Z,20640
2018-09-02T08:06:20.419Z,19776
2018-09-02T08:07:22.557Z,19360
2018-09-02T08:08:24.466Z,22688
2018-09-02T08:09:26.805Z,28384
2018-09-02T08:10:28.661Z,26176
2018-09-02T08:11:30.402Z,22176
2018-09-02T08:12:32.576Z,19392
2018-09-02T08:13:34.568Z,18592
2018-09-02T08:14:36.484Z,18496
2018-09-02T08:15:38.290Z,17984
2018-09-02T08:16:40.887Z,17152
2018-09-02T08:17:42.835Z,16672
2018-09-02T08:18:44.856Z,16416
2018-09-02T08:19:46.925Z,16512
2018-09-02T08:20:48.616Z,16384
2018-09-02T08:21:50.551Z,16256
2018-09-02T08:22:52.504Z,16288
2018-09-02T08:23:54.429Z,16576
2018-09-02T08:24:56.572Z,16544
2018-09-02T08:25:58.405Z,16256
2018-09-02T08:27:00.589Z,16320
2018-09-02T08:28:02.682Z,16416
2018-09-02T08:29:04.762Z,16640
2018-09-02T08:30:06.705Z,16256
2018-09-02T08:31:08.939Z,15712
2018-09-02T08:32:10.898Z,15744
2018-09-02T08:33:12.822Z,15776
2018-09-02T08:34:14.683Z,15904
2018-09-02T08:35:16.558Z,16000
2018-09-02T08:36:18.513Z,16192
2018-09-02T08:37:20.562Z,16320
2018-09-02T08:38:22.319Z,16448
2018-09-02T08:39:24.366Z,16704
2018-09-02T08:40:26.344Z,16832
2018-09-02T08:41:28.334Z,17024
2018-09-02T08:42:30.206Z,16832
2018-09-02T08:43:32.609Z,16288
2018-09-02T08:44:34.688Z,16224
2018-09-02T08:45:36.631Z,16320
2018-09-02T08:46:38.494Z,16352
2018-09-02T08:47:40.542Z,16416
2018-09-02T08:48:42.554Z,16448
2018-09-02T08:49:44.423Z,16512
2018-09-02T08:50:46.641Z,16480
2018-09-02T08:51:48.469Z,16480
2018-09-02T08:52:50.452Z,16480
2018-09-02T08:53:52.485Z,16448
2018-09-02T08:54:54.524Z,16448
2018-09-02T08:55:56.265Z,16576
2018-09-02T08:56:58.254Z,16608
2018-09-02T08:58:00.111Z,16672
2018-09-02T08:59:02.298Z,16736
2018-09-02T09:00:04.531Z,16832
2018-09-02T09:01:06.727Z,16960
2018-09-02T09:02:08.504Z,17120
2018-09-02T09:03:10.681Z,17216
2018-09-02T09:04:12.616Z,17280
2018-09-02T09:05:14.584Z,17376
2018-09-02T09:06:16.563Z,17472
2018-09-02T09:07:18.581Z,17600
2018-09-02T09:08:20.982Z,17792
2018-09-02T09:09:22.913Z,17952
2018-09-02T09:10:25.162Z,18016
2018-09-02T09:11:27.814Z,18336
2018-09-02T09:12:30.011Z,18560
2018-09-02T09:13:31.821Z,18784
2018-09-02T09:14:33.840Z,20448
2018-09-02T09:15:35.873Z,36384
2018-09-02T09:16:37.671Z,49984
2018-09-02T09:17:39.568Z,57376
2018-09-02T09:18:41.615Z,59968
2018-09-02T09:19:43.650Z,58016
2018-09-02T09:20:45.349Z,59552
2018-09-02T09:21:47.471Z,59744
2018-09-02T09:22:49.573Z,60128
2018-09-02T09:23:51.308Z,61600
2018-09-02T09:24:53.289Z,60416
2018-09-02T09:25:55.593Z,61696
2018-09-02T09:26:58.019Z,62688
2018-09-02T09:28:00.677Z,63040
2018-09-02T09:29:02.639Z,63808
2018-09-02T09:30:05.000Z,63552
2018-09-02T09:31:08.232Z,65248
2018-09-02T09:32:10.364Z,66592
2018-09-02T09:33:13.186Z,67520
2018-09-02T09:34:15.390Z,68896
2018-09-02T09:35:17.444Z,71040
2018-09-02T09:36:19.191Z,73888
2018-09-02T09:37:21.335Z,73536
2018-09-02T09:38:23.309Z,74208
2018-09-02T09:39:25.447Z,76128
2018-09-02T09:40:27.548Z,78272
2018-09-02T09:41:29.745Z,80096
2018-09-02T09:42:31.896Z,86432
2018-09-02T09:43:33.839Z,94560
2018-09-02T09:44:35.813Z,90464
2018-09-02T09:45:37.849Z,81024
2018-09-02T09:46:39.969Z,74592
2018-09-02T09:47:42.258Z,72480
2018-09-02T09:48:44.042Z,72224
2018-09-02T09:49:46.190Z,72384
2018-09-02T09:50:48.080Z,72160
2018-09-02T09:51:50.656Z,71968
2018-09-02T09:52:52.843Z,72416
2018-09-02T09:53:55.028Z,74144
2018-09-02T09:54:57.159Z,73568
2018-09-02T09:55:59.353Z,72576
2018-09-02T09:57:01.699Z,71488
2018-09-02T09:58:03.760Z,71104
2018-09-02T09:59:05.652Z,70912
2018-09-02T10:00:07.592Z,71136
2018-09-02T10:01:09.708Z,70816
2018-09-02T10:02:11.539Z,70976
2018-09-02T10:03:13.682Z,70176
2018-09-02T10:04:15.841Z,70784
2018-09-02T10:05:17.865Z,70368
2018-09-02T10:06:19.889Z,70080
2018-09-02T10:07:21.922Z,70688
2018-09-02T10:08:23.957Z,70560
2018-09-02T10:09:26.282Z,71520
2018-09-02T10:10:28.160Z,72320
2018-09-02T10:11:29.984Z,71776
2018-09-02T10:12:31.927Z,71520
2018-09-02T10:13:34.450Z,71840
2018-09-02T10:14:37.471Z,72832
2018-09-02T10:15:39.290Z,72544
2018-09-02T10:16:41.347Z,72192
2018-09-02T10:17:43.287Z,73440
2018-09-02T10:18:45.168Z,73760
2018-09-02T10:19:47.397Z,73152
2018-09-02T10:20:49.759Z,73856
2018-09-02T10:21:51.523Z,72928
2018-09-02T10:22:54.089Z,74496
2018-09-02T10:23:56.027Z,74368
2018-09-02T10:24:57.972Z,73984
2018-09-02T10:26:00.275Z,73408
2018-09-02T10:27:02.153Z,74464
2018-09-02T10:28:04.501Z,75328
2018-09-02T10:29:06.307Z,75680
2018-09-02T10:30:08.902Z,75328
2018-09-02T10:31:10.796Z,75808
2018-09-02T10:32:13.106Z,76192
2018-09-02T10:33:15.473Z,75744
2018-09-02T10:34:17.549Z,74944
2018-09-02T10:35:19.499Z,76480
2018-09-02T10:36:21.411Z,77088
2018-09-02T10:37:23.356Z,76992
2018-09-02T10:38:25.244Z,78944
2018-09-02T10:39:27.123Z,77568
2018-09-02T10:40:29.428Z,77440
2018-09-02T10:41:31.902Z,76608
2018-09-02T10:42:34.206Z,77408
2018-09-02T10:43:36.054Z,78432
2018-09-02T10:44:37.854Z,77248
2018-09-02T10:45:40.002Z,78112
2018-09-02T10:46:41.831Z,77408
2018-09-02T10:47:43.663Z,77408
2018-09-02T10:48:45.949Z,79840
2018-09-02T10:49:48.871Z,80320
2018-09-02T10:50:51.222Z,79040
2018-09-02T10:51:53.484Z,80096
2018-09-02T10:52:55.358Z,80672
2018-09-02T10:53:57.275Z,81952
2018-09-02T10:54:59.893Z,82272
2018-09-02T10:56:02.109Z,82560
2018-09-02T10:57:04.857Z,84288
2018-09-02T10:58:06.975Z,85376
2018-09-02T10:59:08.992Z,86240
2018-09-02T11:00:10.724Z,84512
2018-09-02T11:01:12.574Z,86496
2018-09-02T11:02:14.486Z,85568
2018-09-02T11:03:16.874Z,85120
2018-09-02T11:04:18.627Z,86016
2018-09-02T11:05:22.055Z,83776
2018-09-02T11:06:24.012Z,84288
2018-09-02T11:07:25.820Z,85120
2018-09-02T11:08:28.260Z,85312
2018-09-02T11:09:30.762Z,86336
2018-09-02T11:10:32.521Z,87808
2018-09-02T11:11:34.347Z,89184
2018-09-02T11:12:36.953Z,90048
2018-09-02T11:13:39.056Z,89696
2018-09-02T11:14:40.670Z,91104
2018-09-02T11:15:42.464Z,91648
2018-09-02T11:16:44.637Z,91648
2018-09-02T11:17:46.519Z,91520
2018-09-02T11:18:48.909Z,91488
2018-09-02T11:19:50.683Z,90208
2018-09-02T11:20:52.524Z,59680
2018-09-02T11:21:54.471Z,58784
2018-09-02T11:22:56.714Z,87104
2018-09-02T11:23:58.931Z,88256
2018-09-02T11:25:01.154Z,87456
2018-09-02T11:26:02.972Z,86656
2018-09-02T11:27:04.845Z,84768
2018-09-02T11:28:06.888Z,86784
2018-09-02T11:29:09.365Z,88640
2018-09-02T11:30:11.169Z,86944
2018-09-02T11:31:13.826Z,85792
2018-09-02T11:32:16.087Z,86816
2018-09-02T11:33:18.139Z,88800
2018-09-02T11:34:20.574Z,88288
2018-09-02T11:35:22.728Z,86528
2018-09-02T11:36:24.521Z,86368
2018-09-02T11:37:26.929Z,86752
2018-09-02T11:38:29.228Z,86496
2018-09-02T11:39:30.954Z,84672
2018-09-02T11:40:33.344Z,84928
2018-09-02T11:41:35.863Z,84960
2018-09-02T11:42:37.599Z,83104
2018-09-02T11:43:39.349Z,84256
2018-09-02T11:44:41.432Z,83264
2018-09-02T11:45:43.527Z,82592
2018-09-02T11:46:45.492Z,83456
2018-09-02T11:47:47.270Z,84096
2018-09-02T11:48:49.142Z,86368
2018-09-02T11:49:51.228Z,85984
2018-09-02T11:50:53.130Z,85792
2018-09-02T11:51:55.341Z,85664
2018-09-02T11:52:56.973Z,86784
2018-09-02T11:53:58.713Z,87232
2018-09-02T11:55:00.535Z,87456
2018-09-02T11:56:02.504Z,87360
2018-09-02T11:57:04.403Z,86624
2018-09-02T11:58:06.656Z,87616
2018-09-02T11:59:08.416Z,86528
2018-09-02T12:00:10.345Z,85760
2018-09-02T12:01:12.413Z,84096
2018-09-02T12:02:14.299Z,83360
2018-09-02T12:03:16.356Z,83200
2018-09-02T12:04:18.525Z,82464
2018-09-02T12:05:20.790Z,82080
2018-09-02T12:06:22.993Z,81408
2018-09-02T12:07:25.249Z,80800
2018-09-02T12:08:27.389Z,79872
2018-09-02T12:09:29.620Z,81280
2018-09-02T12:10:31.460Z,79680
2018-09-02T12:11:33.531Z,79040
2018-09-02T12:12:35.344Z,79296
2018-09-02T12:13:37.020Z,77760
2018-09-02T12:14:39.238Z,77344
2018-09-02T12:15:41.375Z,76512
2018-09-02T12:16:43.793Z,76352
2018-09-02T12:17:45.504Z,76864
2018-09-02T12:18:47.301Z,77184
2018-09-02T12:19:49.021Z,78240
2018-09-02T12:20:51.147Z,79776
2018-09-02T12:21:53.375Z,80736
2018-09-02T12:22:55.436Z,80096
2018-09-02T12:23:57.254Z,81312
2018-09-02T12:24:59.002Z,80736
2018-09-02T12:26:00.764Z,79456
2018-09-02T12:27:02.783Z,80896
2018-09-02T12:28:04.661Z,81376
2018-09-02T12:29:06.750Z,80448
2018-09-02T12:30:08.580Z,80704
2018-09-02T12:31:10.817Z,79584
2018-09-02T12:32:12.755Z,78304
2018-09-02T12:33:14.667Z,80960
2018-09-02T12:34:16.707Z,83488
2018-09-02T12:35:18.577Z,81984
2018-09-02T12:36:20.411Z,80960
2018-09-02T12:37:22.289Z,81920
2018-09-02T12:38:23.997Z,82304
2018-09-02T12:39:26.214Z,82272
2018-09-02T12:40:28.032Z,82592
2018-09-02T12:41:29.817Z,81824
2018-09-02T12:42:31.894Z,81344
2018-09-02T12:43:33.855Z,83232
2018-09-02T12:44:35.823Z,84544
2018-09-02T12:45:37.863Z,85376
2018-09-02T12:46:39.613Z,84352
2018-09-02T12:47:41.549Z,84576
2018-09-02T12:48:43.726Z,83968
2018-09-02T12:49:46.191Z,83968
2018-09-02T12:50:48.561Z,84096
2018-09-02T12:51:50.468Z,83744
2018-09-02T12:52:52.179Z,82880
2018-09-02T12:53:54.078Z,81376
2018-09-02T12:54:56.143Z,54112
2018-09-02T12:55:58.162Z,69728
2018-09-02T12:57:00.288Z,86080
2018-09-02T12:58:02.417Z,85920
2018-09-02T12:59:04.260Z,83648
2018-09-02T13:00:06.093Z,65440
2018-09-02T13:01:08.266Z,78912
2018-09-02T13:02:10.076Z,78176
2018-09-02T13:03:12.134Z,77984
2018-09-02T13:04:13.901Z,76160
2018-09-02T13:05:15.682Z,73120
2018-09-02T13:06:17.632Z,74112
2018-09-02T13:07:19.653Z,77248
2018-09-02T13:08:21.520Z,69184
2018-09-02T13:09:23.580Z,56640
2018-09-02T13:10:25.767Z,45504
2018-09-02T13:11:27.533Z,40448
2018-09-02T13:12:29.674Z,38496
2018-09-02T13:13:31.973Z,38784
2018-09-02T13:14:34.227Z,38368
2018-09-02T13:15:36.262Z,38144
2018-09-02T13:16:38.523Z,38368
2018-09-02T13:17:40.501Z,38496
2018-09-02T13:18:42.517Z,38464
2018-09-02T13:19:44.380Z,38368
2018-09-02T13:20:46.615Z,38528
2018-09-02T13:21:48.574Z,38752
2018-09-02T13:22:50.341Z,38112
2018-09-02T13:23:52.238Z,37824
2018-09-02T13:24:54.447Z,37024
2018-09-02T13:25:56.093Z,36800
2018-09-02T13:26:57.815Z,36832
2018-09-02T13:27:59.888Z,36672
2018-09-02T13:29:02.064Z,37056
2018-09-02T13:30:04.170Z,37984
2018-09-02T13:31:06.374Z,38880
2018-09-02T13:32:08.200Z,39872
2018-09-02T13:33:10.015Z,40928
2018-09-02T13:34:11.880Z,41664
2018-09-02T13:35:13.883Z,42368
2018-09-02T13:36:15.873Z,42560
2018-09-02T13:37:17.995Z,46080
2018-09-02T13:38:19.663Z,31968
2018-09-02T13:39:21.616Z,53536
2018-09-02T13:40:23.400Z,58944
2018-09-02T13:41:25.392Z,68480
2018-09-02T13:42:27.288Z,73408
2018-09-02T13:43:29.538Z,71072
2018-09-02T13:44:31.342Z,65440
2018-09-02T13:45:33.259Z,60608
2018-09-02T13:46:35.051Z,60608
2018-09-02T13:47:36.902Z,59264
2018-09-02T13:48:39.031Z,56896
2018-09-02T13:49:40.900Z,56928
2018-09-02T13:50:42.664Z,52608
2018-09-02T13:51:44.557Z,50816
2018-09-02T13:52:46.748Z,47872
2018-09-02T13:53:49.379Z,46496
2018-09-02T13:54:51.489Z,50592
2018-09-02T13:55:53.613Z,53792
2018-09-02T13:56:55.516Z,52544
2018-09-02T13:57:57.350Z,50080
2018-09-02T13:58:59.917Z,46752